Time;durP1;ratioP1;P1;durP2;ratioP2;P2;SDS_P1;SDS_P2;PMS_P1;PMS_P2;Temp;Humidity;BMP_temperature;BMP_pressure;BME280_temperature;BME280_humidity;BME280_pressure;Samples;Min_cycle;Max_cycle;Signal;HPM_P1;HPM_P2
2022/10/06 00:00:37;;;;;;;4.53;0.90;;;;;;;24.53;47.22;101271.66;4199514;28;20036;-59
2022/10/06 00:02:39;;;;;;;7.10;1.50;;;;;;;24.54;47.44;101278.91;4198400;28;20442;-59
2022/10/06 00:04:40;;;;;;;6.28;1.20;;;;;;;24.34;47.39;101249.19;4198398;28;20090;-59
2022/10/06 00:06:41;;;;;;;5.65;1.10;;;;;;;24.55;47.34;101274.13;4183111;28;20439;-59
2022/10/06 00:08:45;;;;;;;4.72;1.00;;;;;;;24.54;47.37;101287.31;4182903;28;20095;-59
2022/10/06 00:10:54;;;;;;;5.07;1.05;;;;;;;24.54;47.65;101284.50;4185841;28;20485;-59
2022/10/06 00:12:56;;;;;;;5.28;1.00;;;;;;;24.53;47.53;101285.66;4181147;28;20053;-56
2022/10/06 00:14:57;;;;;;;7.28;1.25;;;;;;;24.57;47.48;101294.28;4182683;28;20454;-58
2022/10/06 00:16:59;;;;;;;5.90;0.93;;;;;;;24.56;47.41;101292.63;4183194;28;20381;-59
2022/10/06 00:19:00;;;;;;;8.38;1.15;;;;;;;24.54;47.46;101297.66;4184410;28;20037;-59
2022/10/06 00:21:03;;;;;;;1.63;0.82;;;;;;;24.57;47.46;101288.69;4199239;28;20438;-59
2022/10/06 00:23:04;;;;;;;4.25;0.85;;;;;;;24.57;47.79;101286.72;4199143;28;20044;-59
2022/10/06 00:25:07;;;;;;;5.93;1.00;;;;;;;24.54;47.64;101280.88;4199586;28;20102;-59
2022/10/06 00:27:08;;;;;;;5.43;1.30;;;;;;;24.58;47.43;101290.34;4198237;28;20545;-58
2022/10/06 00:29:13;;;;;;;4.93;1.17;;;;;;;24.57;47.72;101278.31;4198287;28;20102;-59
2022/10/06 00:31:16;;;;;;;7.15;1.15;;;;;;;24.57;47.61;101285.88;4199173;28;20102;-59
2022/10/06 00:33:20;;;;;;;2.92;0.88;;;;;;;24.46;47.78;101270.34;4184305;28;20033;-59
2022/10/06 00:35:23;;;;;;;1.67;0.80;;;;;;;24.52;47.51;101283.16;4183031;28;20121;-59
2022/10/06 00:37:25;;;;;;;1.92;0.90;;;;;;;24.57;47.57;101294.28;4183324;28;20067;-59
2022/10/06 00:39:27;;;;;;;2.92;0.80;;;;;;;24.57;47.57;101292.31;4184539;28;20443;-59
2022/10/06 00:41:28;;;;;;;3.42;0.80;;;;;;;24.50;47.73;101279.81;4182581;28;20094;-59
2022/10/06 00:43:53;;;;;;;5.18;1.13;;;;;;;24.55;47.64;101286.16;4191297;28;20101;-59
2022/10/06 00:45:55;;;;;;;3.25;0.80;;;;;;;24.59;47.62;101292.00;4182472;28;20098;-59
2022/10/06 00:48:01;;;;;;;3.15;0.98;;;;;;;24.59;47.50;101297.59;4183004;28;20037;-58
2022/10/06 00:50:03;;;;;;;2.47;0.75;;;;;;;24.42;47.52;101277.66;4186587;28;20037;-58
2022/10/06 00:52:10;;;;;;;5.32;0.80;;;;;;;24.59;47.79;101292.00;4181699;28;20554;-59
2022/10/06 00:54:12;;;;;;;2.97;0.90;;;;;;;24.55;47.65;101291.75;4184742;28;20090;-59
2022/10/06 00:56:14;;;;;;;3.55;0.82;;;;;;;24.59;47.42;101292.84;4182366;28;20045;-59
2022/10/06 00:58:15;;;;;;;3.95;0.73;;;;;;;24.58;47.51;101301.53;4182302;28;20041;-59
2022/10/06 01:00:17;;;;;;;3.75;0.73;;;;;;;24.58;47.36;101295.94;4183755;28;20048;-59
2022/10/06 01:02:33;;;;;;;4.03;1.20;;;;;;;24.58;47.51;101295.94;4198541;28;20040;-58
2022/10/06 01:04:43;;;;;;;2.78;1.10;;;;;;;24.57;47.41;101299.88;4198892;28;20434;-58
2022/10/06 01:06:53;;;;;;;5.22;1.00;;;;;;;24.59;47.45;101292.00;4187762;28;20048;-59
2022/10/06 01:08:54;;;;;;;2.45;0.70;;;;;;;24.58;47.64;101285.56;4214815;28;20039;-60
2022/10/06 01:10:56;;;;;;;3.75;0.82;;;;;;;24.58;47.70;101282.78;4191079;28;20067;-59
2022/10/06 01:13:01;;;;;;;1.75;0.70;;;;;;;24.39;47.42;101258.69;4185731;28;20049;-59
2022/10/06 01:15:02;;;;;;;1.63;0.93;;;;;;;24.57;47.64;101285.88;4193425;28;20052;-59
2022/10/06 01:17:32;;;;;;;3.00;1.00;;;;;;;24.55;47.27;101296.53;4193095;28;20068;-59
2022/10/06 01:19:42;;;;;;;3.65;0.85;;;;;;;24.58;47.64;101290.34;4174666;28;20190;-59
2022/10/06 01:21:50;;;;;;;5.85;1.08;;;;;;;24.58;47.14;101285.56;4183630;28;20086;-59
2022/10/06 01:23:52;;;;;;;2.13;1.05;;;;;;;24.60;47.46;101293.66;4188026;28;20502;-59
2022/10/06 01:25:54;;;;;;;3.75;1.13;;;;;;;24.59;47.33;101286.41;4182048;28;20049;-58
2022/10/06 01:27:57;;;;;;;3.53;1.13;;;;;;;24.31;47.53;101246.97;4182592;28;20033;-59
2022/10/06 01:29:59;;;;;;;2.80;1.05;;;;;;;24.58;47.47;101284.75;4181993;28;20041;-58
2022/10/06 01:32:03;;;;;;;7.15;1.38;;;;;;;24.58;47.88;101290.34;4181596;28;20037;-59
2022/10/06 01:34:07;;;;;;;5.07;1.13;;;;;;;24.54;47.85;101286.47;4183782;28;20028;-58
2022/10/06 01:36:08;;;;;;;1.95;1.20;;;;;;;24.58;47.49;101293.97;4198180;28;20476;-59
2022/10/06 01:38:10;;;;;;;3.58;1.02;;;;;;;24.54;47.83;101278.06;4197231;28;20090;-58
2022/10/06 01:40:11;;;;;;;3.63;1.15;;;;;;;24.43;47.89;101265.34;4188995;28;20086;-59
2022/10/06 01:42:12;;;;;;;2.88;1.10;;;;;;;24.58;47.80;101293.13;4188566;28;20029;-59
2022/10/06 01:44:14;;;;;;;3.60;0.70;;;;;;;24.56;47.84;101299.03;4188816;28;20086;-59
2022/10/06 01:46:15;;;;;;;3.10;1.33;;;;;;;24.50;47.67;101283.44;4191828;28;20048;-58
2022/10/06 01:48:16;;;;;;;1.95;0.98;;;;;;;24.41;47.93;101267.59;4197942;28;20044;-58
2022/10/06 01:50:20;;;;;;;3.42;1.15;;;;;;;24.58;47.80;101295.94;4195787;28;20028;-58
2022/10/06 01:52:21;;;;;;;2.38;0.90;;;;;;;24.57;48.14;101294.28;4195597;28;20086;-58
2022/10/06 01:54:23;;;;;;;4.75;1.38;;;;;;;24.57;48.23;101302.69;4197771;28;20094;-58
2022/10/06 01:56:24;;;;;;;4.93;1.10;;;;;;;24.58;47.73;101301.53;4197850;28;20102;-59
2022/10/06 01:58:26;;;;;;;3.55;1.15;;;;;;;24.57;48.02;101305.47;4183329;28;20040;-59
2022/10/06 02:00:27;;;;;;;4.93;1.10;;;;;;;24.57;47.96;101299.88;4182538;28;20029;-58
2022/10/06 02:02:30;;;;;;;2.15;1.00;;;;;;;24.56;48.08;101303.81;4180779;28;20041;-58
2022/10/06 02:04:31;;;;;;;3.67;1.20;;;;;;;24.57;48.15;101299.88;4181754;28;20029;-58
2022/10/06 02:06:33;;;;;;;5.07;1.27;;;;;;;24.56;48.04;101301.00;4181375;28;20032;-59
2022/10/06 02:08:34;;;;;;;2.30;0.88;;;;;;;24.11;48.13;101224.84;4181141;28;20052;-58
2022/10/06 02:10:39;;;;;;;2.60;0.98;;;;;;;24.56;47.93;101301.00;4181625;28;20036;-58
2022/10/06 02:12:41;;;;;;;2.08;1.10;;;;;;;24.56;48.22;101301.00;4180849;28;20045;-59
2022/10/06 02:14:42;;;;;;;2.13;1.05;;;;;;;24.54;47.78;101294.88;4190277;28;20565;-59
2022/10/06 02:16:47;;;;;;;9.10;1.10;;;;;;;24.55;48.03;101296.53;4187767;28;20546;-59
2022/10/06 02:18:48;;;;;;;14.23;3.10;;;;;;;24.55;48.23;101296.53;4186456;28;20040;-59
2022/10/06 02:20:49;;;;;;;5.15;1.25;;;;;;;24.37;48.08;101260.94;4191856;28;20028;-62
2022/10/06 02:22:54;;;;;;;2.92;0.68;;;;;;;24.57;47.77;101294.28;4190944;28;20442;-59
2022/10/06 02:24:55;;;;;;;3.45;1.20;;;;;;;24.57;47.85;101299.88;4180251;28;20484;-59
2022/10/06 02:27:02;;;;;;;4.88;1.20;;;;;;;24.49;47.72;101284.56;4180981;28;20036;-59
2022/10/06 02:29:03;;;;;;;2.63;0.98;;;;;;;24.53;47.71;101294.03;4189650;28;20083;-60
2022/10/06 02:31:09;;;;;;;3.08;0.90;;;;;;;24.48;47.97;101279.28;4181622;28;20106;-59
2022/10/06 02:33:11;;;;;;;3.40;0.80;;;;;;;24.61;47.81;101303.75;4184718;28;20476;-59
2022/10/06 02:35:12;;;;;;;1.98;1.00;;;;;;;24.61;47.96;101312.16;4186162;28;20052;-59
2022/10/06 02:37:14;;;;;;;2.63;1.17;;;;;;;24.61;47.73;101306.56;4184087;28;20071;-59
2022/10/06 02:39:16;;;;;;;4.43;1.00;;;;;;;24.61;47.77;101300.13;4189363;28;20040;-59
2022/10/06 02:41:17;;;;;;;2.83;0.85;;;;;;;24.58;47.69;101295.94;4196183;28;20525;-60
2022/10/06 02:43:20;;;;;;;3.53;1.10;;;;;;;24.57;47.62;101302.69;4197424;28;20037;-59
2022/10/06 02:45:21;;;;;;;3.95;1.08;;;;;;;24.60;47.81;101304.84;4180981;28;20041;-59
2022/10/06 02:47:22;;;;;;;1.20;0.75;;;;;;;24.62;47.80;101305.41;4181211;28;20110;-60
2022/10/06 02:49:24;;;;;;;1.80;1.10;;;;;;;24.62;47.62;101301.78;4184398;28;20044;-59
2022/10/06 02:51:25;;;;;;;4.38;1.10;;;;;;;24.50;47.68;101279.81;4192666;28;20537;-59
2022/10/06 02:53:27;;;;;;;5.05;1.50;;;;;;;24.61;47.76;101300.13;4195772;28;20045;-59
2022/10/06 02:55:30;;;;;;;2.78;1.08;;;;;;;24.61;47.86;101300.94;4184962;28;20044;-59
2022/10/06 02:57:31;;;;;;;5.32;1.67;;;;;;;24.57;47.61;101291.47;4183313;28;20044;-59
2022/10/06 02:59:32;;;;;;;1.83;1.00;;;;;;;24.62;47.53;101302.63;4180270;28;20049;-58
2022/10/06 03:01:34;;;;;;;4.20;0.93;;;;;;;24.61;47.53;101306.56;4182029;28;20033;-59
2022/10/06 03:03:36;;;;;;;4.97;1.42;;;;;;;24.61;47.90;101317.75;4190162;28;20102;-59
2022/10/06 03:05:37;;;;;;;3.47;0.98;;;;;;;24.63;47.58;101309.03;4180643;28;20534;-58
2022/10/06 03:07:41;;;;;;;5.57;1.60;;;;;;;24.57;47.54;101297.09;4180399;28;20126;-59
2022/10/06 03:09:42;;;;;;;4.53;1.25;;;;;;;24.56;47.67;101299.03;4197006;28;20172;-59
2022/10/06 03:11:44;;;;;;;4.70;1.27;;;;;;;24.63;47.58;101304.28;4195885;28;20435;-59
2022/10/06 03:13:49;;;;;;;5.70;1.20;;;;;;;24.63;47.75;101303.44;4194841;28;20087;-59
2022/10/06 03:15:50;;;;;;;;;;;;;;;24.60;47.72;101299.25;4180853;28;20049;-59
2022/10/06 03:17:51;;;;;;;2.22;1.02;;;;;;;24.68;47.48;101294.97;4180926;28;20322;-59
2022/10/06 03:19:55;;;;;;;4.65;1.30;;;;;;;24.68;47.44;101309.81;4180013;28;20536;-59
2022/10/06 03:21:56;;;;;;;6.45;1.30;;;;;;;24.67;47.76;101305.34;4195038;28;20138;-59
2022/10/06 03:23:59;;;;;;;3.45;1.08;;;;;;;24.65;47.59;101302.03;4180404;28;20041;-59
2022/10/06 03:26:00;;;;;;;3.10;1.10;;;;;;;24.64;47.70;101300.34;4190842;28;20041;-59
2022/10/06 03:28:01;;;;;;;5.05;1.38;;;;;;;24.64;47.74;101308.72;4180797;28;20040;-59
2022/10/06 03:30:04;;;;;;;5.55;1.10;;;;;;;24.54;47.89;101292.06;4183073;28;20485;-60
2022/10/06 03:32:06;;;;;;;5.25;0.80;;;;;;;24.63;47.83;101321.06;4199939;28;20480;-59
2022/10/06 03:34:12;;;;;;;4.85;0.98;;;;;;;24.61;47.86;101316.91;4199274;28;20102;-59
2022/10/06 03:36:16;;;;;;;3.60;1.17;;;;;;;24.58;48.06;101319.16;4199674;28;20090;-58
2022/10/06 03:38:17;;;;;;;2.78;1.20;;;;;;;24.64;47.98;101331.13;4199889;28;20037;-59
2022/10/06 03:40:18;;;;;;;2.85;1.02;;;;;;;24.64;47.97;101328.31;4199936;28;20108;-59
2022/10/06 03:42:20;;;;;;;3.42;1.05;;;;;;;24.63;47.71;101323.88;4197764;28;20094;-59
2022/10/06 03:44:21;;;;;;;1.88;0.88;;;;;;;24.64;47.71;101333.09;4186155;28;20473;-59
2022/10/06 03:46:28;;;;;;;2.13;0.90;;;;;;;24.64;47.89;101327.50;4183263;28;20427;-59
2022/10/06 03:48:34;;;;;;;2.72;0.98;;;;;;;24.62;47.84;101327.78;4189310;28;20451;-59
2022/10/06 03:50:35;;;;;;;5.13;1.20;;;;;;;24.63;47.58;101337.84;4199530;28;20303;-59
2022/10/06 03:52:36;;;;;;;4.32;1.70;;;;;;;24.63;47.69;101343.44;4198277;28;20043;-59
2022/10/06 03:54:39;;;;;;;5.30;0.90;;;;;;;24.63;47.81;101349.03;4200029;28;20407;-59
2022/10/06 03:56:41;;;;;;;5.47;1.30;;;;;;;24.57;47.95;101341.84;4199773;28;20466;-59
2022/10/06 03:58:45;;;;;;;2.95;0.88;;;;;;;24.63;47.65;101342.63;4199887;28;20040;-59
2022/10/06 04:00:49;;;;;;;1.63;0.82;;;;;;;24.63;47.81;101343.44;4199108;28;20086;-59
2022/10/06 04:02:50;;;;;;;3.03;0.77;;;;;;;24.63;47.58;101343.44;4199254;28;20481;-59
2022/10/06 04:04:51;;;;;;;2.08;1.00;;;;;;;24.40;47.80;101305.09;4199986;28;20040;-59
2022/10/06 04:06:52;;;;;;;2.60;0.90;;;;;;;24.57;47.75;101333.44;4199440;28;20082;-59
2022/10/06 04:08:55;;;;;;;3.13;1.00;;;;;;;24.56;47.82;101326.19;4200046;28;20078;-59
2022/10/06 04:11:10;;;;;;;4.45;1.35;;;;;;;24.59;47.43;101331.19;4199720;28;20048;-59
2022/10/06 04:13:11;;;;;;;3.00;0.90;;;;;;;24.63;47.55;101342.63;4185555;28;20542;-59
2022/10/06 04:15:12;;;;;;;4.03;1.05;;;;;;;24.62;47.68;101339.00;4187404;28;20081;-59
2022/10/06 04:17:13;;;;;;;2.28;0.93;;;;;;;24.63;47.42;101348.22;4198674;28;20561;-59
2022/10/06 04:19:16;;;;;;;2.80;0.75;;;;;;;24.47;47.65;101322.38;4199068;28;20074;-59
2022/10/06 04:21:18;;;;;;;3.35;0.90;;;;;;;24.42;47.51;101317.66;4199870;28;20032;-59
2022/10/06 04:23:20;;;;;;;2.92;0.93;;;;;;;24.63;47.60;101351.84;4193324;28;20037;-59
2022/10/06 04:25:21;;;;;;;4.10;0.77;;;;;;;24.61;47.52;101348.53;4192851;28;20431;-59
2022/10/06 04:27:28;;;;;;;1.65;0.82;;;;;;;24.50;47.52;101332.94;4182999;28;20493;-59
2022/10/06 04:29:29;;;;;;;1.05;0.88;;;;;;;24.61;47.58;101359.72;4190102;28;20442;-59
2022/10/06 04:31:38;;;;;;;2.33;1.00;;;;;;;24.61;47.41;101356.09;4199442;28;20427;-59
2022/10/06 04:33:45;;;;;;;3.72;1.02;;;;;;;24.60;47.70;101355.22;4185788;28;20097;-59
2022/10/06 04:35:46;;;;;;;4.05;1.02;;;;;;;24.61;47.42;101356.09;4192570;28;20033;-60
2022/10/06 04:37:48;;;;;;;4.38;1.00;;;;;;;24.61;47.39;101356.09;4182632;28;20056;-59
2022/10/06 04:39:50;;;;;;;2.17;1.30;;;;;;;24.60;47.57;101358.03;4182851;28;20468;-59
2022/10/06 04:41:51;;;;;;;3.03;0.90;;;;;;;24.59;47.40;101359.16;4180794;28;20472;-59
2022/10/06 04:43:52;;;;;;;3.33;1.08;;;;;;;24.58;47.26;101354.69;4182394;28;20071;-59
2022/10/06 04:45:57;;;;;;;2.08;0.88;;;;;;;24.59;47.62;101347.97;4182946;28;20029;-59
2022/10/06 04:47:59;;;;;;;1.98;0.80;;;;;;;24.57;47.29;101333.44;4182799;28;20044;-59
2022/10/06 04:50:00;;;;;;;6.40;1.10;;;;;;;24.59;47.37;101337.59;4185506;28;20036;-59
2022/10/06 04:52:01;;;;;;;2.20;0.90;;;;;;;24.50;47.61;101327.34;4182631;28;20041;-59
2022/10/06 04:54:03;;;;;;;2.78;1.02;;;;;;;24.58;47.54;101335.94;4182050;28;20439;-59
2022/10/06 04:56:08;;;;;;;1.60;0.90;;;;;;;24.56;47.59;101334.59;4182476;28;20094;-60
2022/10/06 04:58:10;;;;;;;1.55;0.85;;;;;;;24.57;47.63;101316.66;4183294;28;20438;-59
2022/10/06 05:00:24;;;;;;;2.95;1.02;;;;;;;24.56;47.62;101324.22;4187950;28;20082;-59
2022/10/06 05:02:27;;;;;;;2.80;1.05;;;;;;;24.56;47.29;101321.44;4198878;28;20098;-59
2022/10/06 05:04:29;;;;;;;1.25;0.82;;;;;;;24.56;47.44;101320.59;4194036;28;20091;-59
2022/10/06 05:06:35;;;;;;;2.35;1.05;;;;;;;24.56;47.45;101320.59;4182126;28;20033;-59
2022/10/06 05:08:37;;;;;;;3.38;1.00;;;;;;;24.56;47.37;101315.84;4189163;28;20041;-59
2022/10/06 05:10:38;;;;;;;8.13;1.08;;;;;;;24.57;47.21;101327.84;4198456;28;20419;-59
2022/10/06 05:12:40;;;;;;;1.70;0.85;;;;;;;24.57;47.51;101327.84;4198445;28;20117;-59
2022/10/06 05:14:41;;;;;;;3.80;1.10;;;;;;;24.55;47.55;101324.50;4198490;28;20052;-59
2022/10/06 05:16:45;;;;;;;1.83;0.98;;;;;;;24.51;47.18;101329.03;4193056;28;20045;-59
2022/10/06 05:18:56;;;;;;;1.40;0.80;;;;;;;24.54;47.29;101334.88;4182253;28;20033;-59
2022/10/06 05:21:05;;;;;;;1.27;1.02;;;;;;;24.55;47.45;101338.50;4182106;28;20083;-59
2022/10/06 05:23:07;;;;;;;2.38;0.90;;;;;;;24.54;47.41;101340.47;4181470;28;20045;-59
2022/10/06 05:25:09;;;;;;;1.98;0.75;;;;;;;24.55;47.49;101341.28;4182660;28;20040;-59
2022/10/06 05:27:10;;;;;;;1.58;0.98;;;;;;;24.54;47.28;101346.06;4182230;28;20082;-59
2022/10/06 05:29:11;;;;;;;3.15;1.17;;;;;;;24.53;47.53;101343.56;4181658;28;20554;-59
2022/10/06 05:31:17;;;;;;;0.82;0.70;;;;;;;24.51;47.36;101335.47;4181769;28;20083;-59
2022/10/06 05:33:18;;;;;;;1.30;0.68;;;;;;;24.52;47.23;101347.50;4181996;28;20033;-59
2022/10/06 05:35:20;;;;;;;1.30;1.00;;;;;;;24.52;47.56;101342.72;4182042;28;20082;-59
2022/10/06 05:37:21;;;;;;;1.30;0.90;;;;;;;24.49;47.38;101336.88;4181650;28;20037;-60
2022/10/06 05:39:22;;;;;;;1.92;0.80;;;;;;;24.52;47.46;101337.13;4181534;28;20480;-59
2022/10/06 05:41:29;;;;;;;2.38;0.70;;;;;;;24.51;47.24;101340.22;4181839;28;20095;-59
2022/10/06 05:43:33;;;;;;;2.33;1.00;;;;;;;24.50;47.04;101332.94;4184283;28;20041;-60
2022/10/06 05:45:35;;;;;;;1.67;0.93;;;;;;;24.51;47.00;101329.03;4185815;28;20040;-59
2022/10/06 05:47:39;;;;;;;2.47;1.10;;;;;;;24.51;47.33;101329.03;4181254;28;20098;-59
2022/10/06 05:49:40;;;;;;;1.33;0.82;;;;;;;24.52;47.38;101341.91;4185783;28;20455;-59
2022/10/06 05:51:41;;;;;;;2.72;0.90;;;;;;;24.51;47.32;101340.22;4197789;28;20329;-59
2022/10/06 05:53:43;;;;;;;2.17;1.05;;;;;;;24.49;47.34;101336.88;4196890;28;20040;-59
2022/10/06 05:55:44;;;;;;;1.05;0.90;;;;;;;24.48;47.34;101332.44;4181093;28;20114;-59
2022/10/06 05:57:48;;;;;;;4.00;1.08;;;;;;;24.48;47.38;101333.25;4183090;28;20114;-59
2022/10/06 05:59:52;;;;;;;2.22;0.80;;;;;;;24.48;47.12;101329.63;4180453;28;20037;-59
2022/10/06 06:01:53;;;;;;;0.90;0.80;;;;;;;24.46;47.22;101331.88;4185849;28;20049;-59
2022/10/06 06:04:03;;;;;;;2.28;1.00;;;;;;;24.46;47.11;101337.47;4197799;28;20074;-59
2022/10/06 06:06:20;;;;;;;1.33;1.02;;;;;;;24.43;47.42;101338.09;4195360;28;20365;-59
2022/10/06 06:08:22;;;;;;;1.02;0.73;;;;;;;24.46;46.96;101331.88;4181438;28;20037;-59
2022/10/06 06:10:23;;;;;;;2.58;0.75;;;;;;;24.46;47.27;101326.28;4181013;28;20044;-59
2022/10/06 06:12:24;;;;;;;2.35;1.05;;;;;;;24.42;47.36;101322.41;4180230;28;20440;-59
2022/10/06 06:16:45;;;;;;;1.65;1.00;;;;;;;24.43;47.22;101326.91;4196065;28;20070;-59
2022/10/06 06:18:46;;;;;;;1.63;1.02;;;;;;;24.44;47.12;101328.56;4184308;28;20118;-59
2022/10/06 06:20:56;;;;;;;2.17;0.77;;;;;;;24.22;47.15;101299.09;4186481;28;20059;-59
2022/10/06 06:22:57;;;;;;;1.65;0.70;;;;;;;24.44;46.98;101340.56;4197671;28;20016;-59
2022/10/06 06:24:58;;;;;;;2.33;0.90;;;;;;;24.45;47.21;101335.81;4192213;28;20032;-59
2022/10/06 06:26:59;;;;;;;1.75;1.00;;;;;;;24.43;47.17;101350.09;4180908;28;20041;-59
2022/10/06 06:29:02;;;;;;;1.58;0.93;;;;;;;24.42;47.04;101341.97;4189654;28;20384;-59
2022/10/06 06:31:06;;;;;;;4.28;1.23;;;;;;;24.46;47.03;101354.25;4186008;28;20037;-59
2022/10/06 06:33:08;;;;;;;1.25;0.93;;;;;;;24.45;47.40;101352.59;4182066;28;20032;-59
2022/10/06 06:35:10;;;;;;;2.67;1.23;;;;;;;24.45;47.20;101347.81;4196679;28;20040;-59
2022/10/06 06:37:11;;;;;;;1.38;0.90;;;;;;;24.44;46.95;101343.38;4192652;28;20455;-59
2022/10/06 06:39:18;;;;;;;1.80;1.20;;;;;;;24.38;46.88;101335.34;4190908;28;20527;-59
2022/10/06 06:41:30;;;;;;;1.38;1.10;;;;;;;24.43;47.27;101343.69;4183832;28;20101;-59
2022/10/06 06:43:31;;;;;;;1.27;1.00;;;;;;;24.47;46.90;101344.75;4188704;28;20082;-59
2022/10/06 06:45:32;;;;;;;2.58;1.15;;;;;;;24.46;46.99;101337.47;4181081;28;20045;-59
2022/10/06 06:47:33;;;;;;;1.73;1.30;;;;;;;24.46;47.19;101331.88;4184129;28;20422;-59
2022/10/06 06:49:35;;;;;;;1.70;1.15;;;;;;;24.46;46.96;101331.88;4187957;28;20380;-59
2022/10/06 06:51:39;;;;;;;0.80;0.80;;;;;;;24.45;47.12;101331.03;4195999;28;20409;-60
2022/10/06 06:53:40;;;;;;;2.03;0.90;;;;;;;24.46;47.18;101331.88;4195424;28;20041;-59
2022/10/06 06:55:49;;;;;;;1.55;0.93;;;;;;;24.45;47.17;101335.81;4182875;28;20627;-59
2022/10/06 06:57:51;;;;;;;1.15;0.90;;;;;;;24.46;46.88;101340.25;4186827;28;20037;-59
2022/10/06 06:59:52;;;;;;;2.03;0.80;;;;;;;24.46;47.18;101332.72;4192969;28;20044;-59
2022/10/06 07:01:53;;;;;;;1.10;0.77;;;;;;;24.47;47.11;101339.16;4183666;28;20075;-59
2022/10/06 07:03:57;;;;;;;3.38;1.13;;;;;;;24.46;47.11;101331.88;4195312;28;20090;-58
2022/10/06 07:06:08;;;;;;;1.42;1.20;;;;;;;24.43;47.24;101332.50;4184027;28;20421;-59
2022/10/06 07:08:10;;;;;;;1.00;0.77;;;;;;;24.47;47.26;101334.41;4183903;28;20178;-59
2022/10/06 07:10:11;;;;;;;0.98;0.80;;;;;;;24.47;47.16;101328.81;4183492;28;20045;-59
2022/10/06 07:12:13;;;;;;;1.77;0.90;;;;;;;24.47;46.97;101325.19;4184403;28;20079;-59
2022/10/06 07:14:14;;;;;;;0.98;0.90;;;;;;;24.37;47.17;101308.47;4185747;28;20057;-60
2022/10/06 07:25:38;;;;;;;0.90;0.80;;;;;;;24.41;46.99;101309.56;4190403;28;20101;-59
2022/10/06 07:27:42;;;;;;;1.38;0.90;;;;;;;24.48;46.81;101318.44;4200604;28;20032;-59
2022/10/06 07:29:45;;;;;;;1.33;1.00;;;;;;;24.47;47.10;101320.41;4195978;28;20048;-60
2022/10/06 07:31:46;;;;;;;1.83;1.02;;;;;;;24.48;46.91;101318.44;4183658;28;20070;-59
2022/10/06 07:33:50;;;;;;;2.80;0.80;;;;;;;24.37;46.83;101305.69;4183875;28;20103;-59
2022/10/06 07:35:51;;;;;;;2.92;0.75;;;;;;;24.46;47.00;101321.50;4183392;28;20095;-59
2022/10/06 07:37:53;;;;;;;1.10;0.70;;;;;;;24.49;46.80;101331.28;4183089;28;20041;-59
2022/10/06 07:39:54;;;;;;;1.50;0.90;;;;;;;24.48;47.00;101335.22;4185515;28;20048;-59
2022/10/06 07:41:55;;;;;;;1.40;1.00;;;;;;;24.47;46.98;101328.81;4183177;28;20451;-59
2022/10/06 07:43:59;;;;;;;1.55;1.02;;;;;;;24.49;47.11;101331.28;4183616;28;20087;-59
2022/10/06 07:46:01;;;;;;;0.75;0.70;;;;;;;24.49;47.07;101317.31;4182811;28;20049;-59
2022/10/06 07:48:04;;;;;;;1.95;1.05;;;;;;;24.48;46.84;101318.44;4183775;28;20028;-59
2022/10/06 07:50:07;;;;;;;1.10;0.98;;;;;;;24.49;46.97;101314.50;4186749;28;20033;-59
2022/10/06 07:52:08;;;;;;;1.20;1.10;;;;;;;24.49;46.67;101306.13;4182783;28;20045;-59
2022/10/06 07:54:09;;;;;;;3.80;1.10;;;;;;;24.39;46.89;101293.06;4189095;28;20044;-59
2022/10/06 07:56:14;;;;;;;1.77;0.95;;;;;;;24.46;46.81;101306.69;4193058;28;20045;-59
2022/10/06 07:58:22;;;;;;;1.20;1.10;;;;;;;24.47;46.67;101300.81;4189464;28;20090;-59
2022/10/06 08:00:26;;;;;;;1.92;1.08;;;;;;;24.48;46.81;101296.06;4191482;28;20477;-59
2022/10/06 08:02:27;;;;;;;1.42;0.85;;;;;;;24.48;46.90;101296.06;4190544;28;20048;-59
2022/10/06 08:04:29;;;;;;;2.53;0.85;;;;;;;24.38;46.92;101285.81;4194247;28;20025;-59
2022/10/06 08:06:30;;;;;;;1.02;0.93;;;;;;;24.47;46.71;101295.22;4182640;28;20471;-59
2022/10/06 08:08:36;;;;;;;1.73;0.82;;;;;;;24.26;46.76;101261.00;4182588;28;20045;-59
2022/10/06 08:10:38;;;;;;;2.28;1.00;;;;;;;24.46;46.89;101299.13;4191516;28;20487;-59
2022/10/06 08:12:39;;;;;;;0.90;0.80;;;;;;;24.37;46.79;101277.72;4196698;28;20484;-59
2022/10/06 08:14:40;;;;;;;1.23;1.00;;;;;;;24.47;46.74;101297.19;4183138;28;20032;-59
2022/10/06 08:16:42;;;;;;;2.25;1.20;;;;;;;24.45;46.68;101296.66;4182395;28;20045;-59
2022/10/06 08:18:48;;;;;;;1.35;0.90;;;;;;;24.46;46.76;101299.13;4182495;28;20447;-59
2022/10/06 08:20:50;;;;;;;1.63;0.90;;;;;;;24.48;46.76;101307.25;4180699;28;20438;-59
2022/10/06 08:22:51;;;;;;;2.13;0.88;;;;;;;24.45;47.17;101299.44;4187413;28;20045;-59
2022/10/06 08:24:53;;;;;;;1.23;0.70;;;;;;;24.47;46.71;101302.78;4193543;28;20041;-60
2022/10/06 08:26:55;;;;;;;0.98;0.90;;;;;;;24.46;46.82;101303.91;4199754;28;20044;-60
2022/10/06 08:28:59;;;;;;;1.13;0.80;;;;;;;24.46;46.77;101303.91;4189005;28;20041;-60
2022/10/06 08:31:05;;;;;;;1.47;1.10;;;;;;;24.27;46.72;101285.03;4183031;28;20037;-60
2022/10/06 08:33:06;;;;;;;5.15;1.17;;;;;;;24.37;47.01;101300.09;4183109;28;20721;-60
2022/10/06 08:35:09;;;;;;;1.80;1.05;;;;;;;24.25;46.69;101292.91;4187920;28;20113;-60
2022/10/06 08:37:10;;;;;;;0.70;0.70;;;;;;;24.42;46.77;101314.00;4199248;28;20353;-60
2022/10/06 08:39:11;;;;;;;5.35;1.00;;;;;;;24.42;47.01;101311.22;4186633;28;20386;-60
2022/10/06 08:41:22;;;;;;;0.60;0.60;;;;;;;24.44;46.71;101312.59;4182824;28;20041;-60
2022/10/06 08:43:28;;;;;;;2.25;0.88;;;;;;;24.45;46.70;101314.25;4183620;28;20439;-60
2022/10/06 08:45:38;;;;;;;1.10;0.88;;;;;;;24.30;46.59;101292.84;4199377;28;20033;-60
2022/10/06 08:47:49;;;;;;;1.45;1.10;;;;;;;24.44;46.60;101317.38;4197940;28;20090;-60
2022/10/06 08:49:53;;;;;;;1.50;0.77;;;;;;;24.44;46.78;101318.19;4182731;28;20032;-60
2022/10/06 08:52:10;;;;;;;1.08;0.68;;;;;;;24.43;46.65;101324.09;4182091;28;20040;-60
2022/10/06 08:54:19;;;;;;;1.20;1.05;;;;;;;24.43;46.69;101322.13;4182545;28;20041;-60
2022/10/06 08:56:25;;;;;;;1.25;1.05;;;;;;;24.43;46.70;101327.72;4182533;28;20099;-60
2022/10/06 08:58:37;;;;;;;2.00;1.08;;;;;;;24.45;46.67;101324.63;4182855;28;20041;-60
2022/10/06 09:00:38;;;;;;;1.83;1.00;;;;;;;24.44;46.55;101322.97;4182216;28;20037;-60
2022/10/06 09:02:46;;;;;;;1.45;0.73;;;;;;;24.43;46.75;101322.13;4182169;28;20041;-60
2022/10/06 09:04:49;;;;;;;1.02;0.90;;;;;;;24.44;46.34;101328.56;4182618;28;20477;-60
2022/10/06 09:07:04;;;;;;;2.38;0.90;;;;;;;24.35;46.72;101329.16;4181949;28;20044;-60
2022/10/06 09:09:44;;;;;;;2.40;1.20;;;;;;;24.40;46.67;101333.91;4182440;28;20484;-61
2022/10/06 09:11:55;;;;;;;1.95;0.90;;;;;;;24.43;46.53;101340.88;4151424;28;20044;-60
2022/10/06 09:14:04;;;;;;;1.02;0.85;;;;;;;24.43;46.53;101335.28;4182643;28;20477;-61
2022/10/06 09:16:09;;;;;;;1.13;0.82;;;;;;;24.37;46.23;101325.25;4181922;28;20106;-60
2022/10/06 09:18:20;;;;;;;1.20;0.80;;;;;;;24.42;46.53;101330.78;4182545;28;20036;-60
2022/10/06 09:20:35;;;;;;;2.00;0.80;;;;;;;24.40;46.37;101342.28;4181567;28;20090;-60
2022/10/06 09:22:37;;;;;;;1.23;0.88;;;;;;;24.42;46.35;101345.66;4181546;28;20045;-60
2022/10/06 09:24:41;;;;;;;1.05;0.80;;;;;;;24.38;46.44;101341.75;4181781;28;20076;-60
2022/10/06 09:26:45;;;;;;;1.48;0.90;;;;;;;24.42;46.19;101341.97;4181016;28;20049;-59
2022/10/06 09:28:50;;;;;;;1.40;0.90;;;;;;;24.40;46.19;101339.50;4181585;28;20408;-60
2022/10/06 09:30:52;;;;;;;1.10;0.90;;;;;;;24.40;46.56;101347.88;4181598;28;20110;-59
2022/10/06 09:33:02;;;;;;;1.35;0.98;;;;;;;24.37;46.22;101342.88;4181877;28;20349;-59
2022/10/06 09:35:17;;;;;;;1.52;0.82;;;;;;;24.37;46.63;101342.03;4182288;28;20562;-61
2022/10/06 09:37:18;;;;;;;2.42;0.98;;;;;;;24.35;46.17;101331.94;4182030;28;20102;-60
2022/10/06 09:39:25;;;;;;;1.20;0.98;;;;;;;24.37;46.30;101353.22;4181836;28;20037;-60
2022/10/06 09:41:39;;;;;;;1.25;1.02;;;;;;;24.35;46.50;101337.53;4182068;28;20074;-58
2022/10/06 09:43:51;;;;;;;2.53;0.80;;;;;;;24.32;46.34;101337.28;4181130;28;20549;-60
2022/10/06 09:45:54;;;;;;;2.28;1.00;;;;;;;24.37;46.39;101350.44;4181433;28;20558;-60